sensor_id;sensor_type;location;lat;lon;timestamp;P1;durP1;ratioP1;P2;durP2;ratioP2
14584;SDS011;7379;51.506;11.876;2024-02-14T00:00:48;3.73;;;3.33;;
14584;SDS011;7379;51.506;11.876;2024-02-14T00:03:15;4.83;;;3.60;;
14584;SDS011;7379;51.506;11.876;2024-02-14T00:05:43;4.10;;;3.60;;
14584;SDS011;7379;51.506;11.876;2024-02-14T00:08:10;4.77;;;4.00;;
14584;SDS011;7379;51.506;11.876;2024-02-14T00:10:38;5.93;;;3.90;;
14584;SDS011;7379;51.506;11.876;2024-02-14T00:13:05;4.67;;;3.80;;
14584;SDS011;7379;51.506;11.876;2024-02-14T00:15:33;5.47;;;3.73;;
14584;SDS011;7379;51.506;11.876;2024-02-14T00:18:00;5.50;;;4.00;;
14584;SDS011;7379;51.506;11.876;2024-02-14T00:20:27;4.63;;;3.90;;
14584;SDS011;7379;51.506;11.876;2024-02-14T00:22:55;4.73;;;4.10;;
14584;SDS011;7379;51.506;11.876;2024-02-14T00:25:21;4.27;;;3.87;;
14584;SDS011;7379;51.506;11.876;2024-02-14T00:27:48;5.20;;;4.17;;
14584;SDS011;7379;51.506;11.876;2024-02-14T00:30:15;5.93;;;4.10;;
14584;SDS011;7379;51.506;11.876;2024-02-14T00:32:42;5.40;;;3.90;;
14584;SDS011;7379;51.506;11.876;2024-02-14T00:35:09;4.23;;;3.77;;
14584;SDS011;7379;51.506;11.876;2024-02-14T00:37:36;4.40;;;4.00;;
14584;SDS011;7379;51.506;11.876;2024-02-14T00:40:04;5.53;;;4.20;;
14584;SDS011;7379;51.506;11.876;2024-02-14T00:42:32;4.77;;;4.27;;
14584;SDS011;7379;51.506;11.876;2024-02-14T00:44:59;4.90;;;3.77;;
14584;SDS011;7379;51.506;11.876;2024-02-14T00:47:26;4.30;;;3.60;;
14584;SDS011;7379;51.506;11.876;2024-02-14T00:49:52;4.47;;;3.70;;
14584;SDS011;7379;51.506;11.876;2024-02-14T00:52:19;5.17;;;4.00;;
14584;SDS011;7379;51.506;11.876;2024-02-14T00:54:46;4.83;;;3.83;;
14584;SDS011;7379;51.506;11.876;2024-02-14T00:57:14;4.80;;;4.10;;
14584;SDS011;7379;51.506;11.876;2024-02-14T00:59:43;4.27;;;3.77;;
14584;SDS011;7379;51.506;11.876;2024-02-14T01:02:09;5.70;;;4.10;;
14584;SDS011;7379;51.506;11.876;2024-02-14T01:04:36;4.43;;;3.90;;
14584;SDS011;7379;51.506;11.876;2024-02-14T01:07:03;4.43;;;3.83;;
14584;SDS011;7379;51.506;11.876;2024-02-14T01:09:30;4.60;;;3.87;;
14584;SDS011;7379;51.506;11.876;2024-02-14T01:11:57;4.67;;;3.77;;
14584;SDS011;7379;51.506;11.876;2024-02-14T01:14:26;5.13;;;3.70;;
14584;SDS011;7379;51.506;11.876;2024-02-14T01:16:52;4.57;;;3.90;;
14584;SDS011;7379;51.506;11.876;2024-02-14T01:19:19;4.23;;;3.80;;
14584;SDS011;7379;51.506;11.876;2024-02-14T01:21:48;6.93;;;3.97;;
14584;SDS011;7379;51.506;11.876;2024-02-14T01:24:15;4.27;;;3.80;;
14584;SDS011;7379;51.506;11.876;2024-02-14T01:26:42;4.40;;;3.90;;
14584;SDS011;7379;51.506;11.876;2024-02-14T01:29:09;5.10;;;3.63;;
14584;SDS011;7379;51.506;11.876;2024-02-14T01:31:37;5.67;;;4.10;;
14584;SDS011;7379;51.506;11.876;2024-02-14T01:34:03;4.20;;;3.17;;
14584;SDS011;7379;51.506;11.876;2024-02-14T01:36:30;4.00;;;3.60;;
14584;SDS011;7379;51.506;11.876;2024-02-14T01:38:57;5.03;;;3.80;;
14584;SDS011;7379;51.506;11.876;2024-02-14T01:41:23;4.27;;;3.70;;
14584;SDS011;7379;51.506;11.876;2024-02-14T01:43:50;6.10;;;3.67;;
14584;SDS011;7379;51.506;11.876;2024-02-14T01:46:17;4.83;;;3.67;;
14584;SDS011;7379;51.506;11.876;2024-02-14T01:48:45;3.93;;;3.40;;
14584;SDS011;7379;51.506;11.876;2024-02-14T01:51:13;4.00;;;3.60;;
14584;SDS011;7379;51.506;11.876;2024-02-14T01:53:42;5.20;;;3.67;;
14584;SDS011;7379;51.506;11.876;2024-02-14T01:56:09;4.30;;;3.57;;
14584;SDS011;7379;51.506;11.876;2024-02-14T01:58:36;4.00;;;3.60;;
14584;SDS011;7379;51.506;11.876;2024-02-14T02:01:03;3.80;;;3.30;;
14584;SDS011;7379;51.506;11.876;2024-02-14T02:03:30;4.63;;;3.47;;
14584;SDS011;7379;51.506;11.876;2024-02-14T02:06:02;3.97;;;3.50;;
14584;SDS011;7379;51.506;11.876;2024-02-14T02:08:29;4.50;;;4.10;;
14584;SDS011;7379;51.506;11.876;2024-02-14T02:10:57;4.03;;;3.50;;
14584;SDS011;7379;51.506;11.876;2024-02-14T02:13:24;4.47;;;3.50;;
14584;SDS011;7379;51.506;11.876;2024-02-14T02:15:51;5.70;;;3.57;;
14584;SDS011;7379;51.506;11.876;2024-02-14T02:18:18;3.90;;;3.47;;
14584;SDS011;7379;51.506;11.876;2024-02-14T02:20:45;4.23;;;3.40;;
14584;SDS011;7379;51.506;11.876;2024-02-14T02:23:13;4.20;;;3.53;;
14584;SDS011;7379;51.506;11.876;2024-02-14T02:25:40;4.87;;;3.53;;
14584;SDS011;7379;51.506;11.876;2024-02-14T02:28:07;4.17;;;3.77;;
14584;SDS011;7379;51.506;11.876;2024-02-14T02:30:34;5.03;;;3.57;;
14584;SDS011;7379;51.506;11.876;2024-02-14T02:33:01;4.90;;;3.77;;
14584;SDS011;7379;51.506;11.876;2024-02-14T02:35:28;4.17;;;3.47;;
14584;SDS011;7379;51.506;11.876;2024-02-14T02:37:55;3.90;;;3.50;;
14584;SDS011;7379;51.506;11.876;2024-02-14T02:40:23;3.87;;;3.57;;
14584;SDS011;7379;51.506;11.876;2024-02-14T02:42:52;4.10;;;3.30;;
14584;SDS011;7379;51.506;11.876;2024-02-14T02:45:19;4.40;;;3.90;;
14584;SDS011;7379;51.506;11.876;2024-02-14T02:47:45;5.37;;;3.30;;
14584;SDS011;7379;51.506;11.876;2024-02-14T02:50:12;4.70;;;3.53;;
14584;SDS011;7379;51.506;11.876;2024-02-14T02:52:39;4.10;;;3.70;;
14584;SDS011;7379;51.506;11.876;2024-02-14T02:55:06;3.53;;;3.20;;
14584;SDS011;7379;51.506;11.876;2024-02-14T02:57:35;4.23;;;3.20;;
14584;SDS011;7379;51.506;11.876;2024-02-14T03:00:03;4.90;;;3.63;;
14584;SDS011;7379;51.506;11.876;2024-02-14T03:02:33;4.47;;;3.10;;
14584;SDS011;7379;51.506;11.876;2024-02-14T03:05:03;4.37;;;3.20;;
14584;SDS011;7379;51.506;11.876;2024-02-14T03:07:31;4.50;;;3.13;;
14584;SDS011;7379;51.506;11.876;2024-02-14T03:09:58;3.87;;;3.20;;
14584;SDS011;7379;51.506;11.876;2024-02-14T03:12:25;4.23;;;3.27;;
14584;SDS011;7379;51.506;11.876;2024-02-14T03:14:56;4.73;;;3.43;;
14584;SDS011;7379;51.506;11.876;2024-02-14T03:17:23;3.60;;;3.20;;
14584;SDS011;7379;51.506;11.876;2024-02-14T03:19:50;3.43;;;3.10;;
14584;SDS011;7379;51.506;11.876;2024-02-14T03:22:17;3.60;;;3.07;;
14584;SDS011;7379;51.506;11.876;2024-02-14T03:24:44;4.17;;;3.00;;
14584;SDS011;7379;51.506;11.876;2024-02-14T03:27:11;4.23;;;3.00;;
14584;SDS011;7379;51.506;11.876;2024-02-14T03:29:38;4.70;;;3.10;;
14584;SDS011;7379;51.506;11.876;2024-02-14T03:32:07;4.17;;;3.17;;
14584;SDS011;7379;51.506;11.876;2024-02-14T03:34:34;3.97;;;2.90;;
14584;SDS011;7379;51.506;11.876;2024-02-14T03:37:01;3.27;;;2.70;;
14584;SDS011;7379;51.506;11.876;2024-02-14T03:39:28;3.07;;;2.70;;
14584;SDS011;7379;51.506;11.876;2024-02-14T03:41:55;3.40;;;2.80;;
14584;SDS011;7379;51.506;11.876;2024-02-14T03:44:22;4.17;;;3.00;;
14584;SDS011;7379;51.506;11.876;2024-02-14T03:46:49;3.17;;;2.57;;
14584;SDS011;7379;51.506;11.876;2024-02-14T03:49:17;3.53;;;2.80;;
14584;SDS011;7379;51.506;11.876;2024-02-14T03:51:44;3.70;;;3.30;;
14584;SDS011;7379;51.506;11.876;2024-02-14T03:54:11;4.07;;;2.80;;
14584;SDS011;7379;51.506;11.876;2024-02-14T03:56:38;3.57;;;2.70;;
14584;SDS011;7379;51.506;11.876;2024-02-14T03:59:05;3.33;;;2.70;;
14584;SDS011;7379;51.506;11.876;2024-02-14T04:01:32;3.17;;;2.70;;
14584;SDS011;7379;51.506;11.876;2024-02-14T04:04:00;3.07;;;2.67;;
14584;SDS011;7379;51.506;11.876;2024-02-14T04:06:28;2.77;;;2.57;;
14584;SDS011;7379;51.506;11.876;2024-02-14T04:08:56;3.27;;;2.60;;
14584;SDS011;7379;51.506;11.876;2024-02-14T04:11:23;2.57;;;2.27;;
14584;SDS011;7379;51.506;11.876;2024-02-14T04:13:50;2.70;;;2.50;;
14584;SDS011;7379;51.506;11.876;2024-02-14T04:16:18;3.47;;;2.33;;
14584;SDS011;7379;51.506;11.876;2024-02-14T04:18:46;3.20;;;2.60;;
14584;SDS011;7379;51.506;11.876;2024-02-14T04:21:13;2.57;;;2.37;;
14584;SDS011;7379;51.506;11.876;2024-02-14T04:23:41;3.40;;;2.73;;
14584;SDS011;7379;51.506;11.876;2024-02-14T04:26:08;2.73;;;2.43;;
14584;SDS011;7379;51.506;11.876;2024-02-14T04:28:34;2.80;;;2.50;;
14584;SDS011;7379;51.506;11.876;2024-02-14T04:31:01;3.23;;;2.50;;
14584;SDS011;7379;51.506;11.876;2024-02-14T04:33:28;4.33;;;2.80;;
14584;SDS011;7379;51.506;11.876;2024-02-14T04:35:55;4.17;;;2.40;;
14584;SDS011;7379;51.506;11.876;2024-02-14T04:38:22;2.70;;;2.50;;
14584;SDS011;7379;51.506;11.876;2024-02-14T04:40:50;3.90;;;2.40;;
14584;SDS011;7379;51.506;11.876;2024-02-14T04:43:17;2.63;;;2.30;;
14584;SDS011;7379;51.506;11.876;2024-02-14T04:45:44;2.60;;;2.23;;
14584;SDS011;7379;51.506;11.876;2024-02-14T04:48:11;3.00;;;2.40;;
14584;SDS011;7379;51.506;11.876;2024-02-14T04:50:38;2.73;;;2.33;;
14584;SDS011;7379;51.506;11.876;2024-02-14T04:53:05;3.00;;;2.30;;
14584;SDS011;7379;51.506;11.876;2024-02-14T04:55:32;2.90;;;2.50;;
14584;SDS011;7379;51.506;11.876;2024-02-14T04:58:00;2.80;;;2.30;;
14584;SDS011;7379;51.506;11.876;2024-02-14T05:00:27;3.37;;;2.57;;
14584;SDS011;7379;51.506;11.876;2024-02-14T05:02:54;3.90;;;2.50;;
14584;SDS011;7379;51.506;11.876;2024-02-14T05:05:20;3.60;;;2.40;;
14584;SDS011;7379;51.506;11.876;2024-02-14T05:07:47;2.73;;;2.40;;
14584;SDS011;7379;51.506;11.876;2024-02-14T05:10:14;3.17;;;2.60;;
14584;SDS011;7379;51.506;11.876;2024-02-14T05:12:41;3.13;;;2.50;;
14584;SDS011;7379;51.506;11.876;2024-02-14T05:15:09;2.90;;;2.30;;
14584;SDS011;7379;51.506;11.876;2024-02-14T05:17:37;3.23;;;2.40;;
14584;SDS011;7379;51.506;11.876;2024-02-14T05:20:04;4.53;;;2.60;;
14584;SDS011;7379;51.506;11.876;2024-02-14T05:22:34;4.57;;;2.50;;
14584;SDS011;7379;51.506;11.876;2024-02-14T05:25:02;2.93;;;2.40;;
14584;SDS011;7379;51.506;11.876;2024-02-14T05:27:29;2.43;;;2.20;;
14584;SDS011;7379;51.506;11.876;2024-02-14T05:29:56;3.53;;;2.20;;
14584;SDS011;7379;51.506;11.876;2024-02-14T05:32:24;2.57;;;2.20;;
14584;SDS011;7379;51.506;11.876;2024-02-14T05:34:50;4.97;;;2.50;;
14584;SDS011;7379;51.506;11.876;2024-02-14T05:37:17;2.73;;;2.33;;
14584;SDS011;7379;51.506;11.876;2024-02-14T05:39:44;3.30;;;2.40;;
14584;SDS011;7379;51.506;11.876;2024-02-14T05:42:11;3.93;;;2.30;;
14584;SDS011;7379;51.506;11.876;2024-02-14T05:44:38;2.80;;;2.50;;
14584;SDS011;7379;51.506;11.876;2024-02-14T05:47:05;2.93;;;2.40;;
14584;SDS011;7379;51.506;11.876;2024-02-14T05:49:33;2.77;;;2.20;;
14584;SDS011;7379;51.506;11.876;2024-02-14T05:52:00;2.80;;;2.17;;
14584;SDS011;7379;51.506;11.876;2024-02-14T05:54:27;2.83;;;2.30;;
14584;SDS011;7379;51.506;11.876;2024-02-14T05:56:53;4.03;;;2.50;;
14584;SDS011;7379;51.506;11.876;2024-02-14T05:59:22;3.20;;;2.43;;
14584;SDS011;7379;51.506;11.876;2024-02-14T06:01:49;2.60;;;2.40;;
14584;SDS011;7379;51.506;11.876;2024-02-14T06:04:16;3.00;;;2.30;;
14584;SDS011;7379;51.506;11.876;2024-02-14T06:06:44;3.03;;;2.50;;
14584;SDS011;7379;51.506;11.876;2024-02-14T06:09:13;3.17;;;2.33;;
14584;SDS011;7379;51.506;11.876;2024-02-14T06:11:40;2.83;;;2.20;;
14584;SDS011;7379;51.506;11.876;2024-02-14T06:14:08;2.30;;;2.07;;
14584;SDS011;7379;51.506;11.876;2024-02-14T06:16:35;2.63;;;2.20;;
14584;SDS011;7379;51.506;11.876;2024-02-14T06:19:02;3.83;;;2.40;;
14584;SDS011;7379;51.506;11.876;2024-02-14T06:21:29;2.40;;;2.20;;
14584;SDS011;7379;51.506;11.876;2024-02-14T06:23:59;4.10;;;2.50;;
14584;SDS011;7379;51.506;11.876;2024-02-14T06:26:26;3.63;;;2.40;;
14584;SDS011;7379;51.506;11.876;2024-02-14T06:28:52;3.67;;;2.57;;
14584;SDS011;7379;51.506;11.876;2024-02-14T06:31:20;2.87;;;2.40;;
14584;SDS011;7379;51.506;11.876;2024-02-14T06:33:48;3.33;;;2.60;;
14584;SDS011;7379;51.506;11.876;2024-02-14T06:36:14;2.80;;;2.40;;
14584;SDS011;7379;51.506;11.876;2024-02-14T06:38:41;2.97;;;2.50;;
14584;SDS011;7379;51.506;11.876;2024-02-14T06:41:12;2.80;;;2.30;;
14584;SDS011;7379;51.506;11.876;2024-02-14T06:43:39;2.67;;;2.27;;
14584;SDS011;7379;51.506;11.876;2024-02-14T06:46:05;3.33;;;2.40;;
14584;SDS011;7379;51.506;11.876;2024-02-14T06:48:32;3.00;;;2.47;;
14584;SDS011;7379;51.506;11.876;2024-02-14T06:50:59;3.60;;;2.50;;
14584;SDS011;7379;51.506;11.876;2024-02-14T06:53:26;2.60;;;2.40;;
14584;SDS011;7379;51.506;11.876;2024-02-14T06:55:52;2.80;;;2.30;;
14584;SDS011;7379;51.506;11.876;2024-02-14T06:58:20;3.30;;;2.50;;
14584;SDS011;7379;51.506;11.876;2024-02-14T07:00:47;3.07;;;2.40;;
14584;SDS011;7379;51.506;11.876;2024-02-14T07:03:14;3.63;;;2.40;;
14584;SDS011;7379;51.506;11.876;2024-02-14T07:05:41;2.83;;;2.53;;
14584;SDS011;7379;51.506;11.876;2024-02-14T07:08:08;4.17;;;2.53;;
14584;SDS011;7379;51.506;11.876;2024-02-14T07:10:35;3.13;;;2.43;;
14584;SDS011;7379;51.506;11.876;2024-02-14T07:13:02;3.27;;;2.43;;
14584;SDS011;7379;51.506;11.876;2024-02-14T07:15:30;2.60;;;2.40;;
14584;SDS011;7379;51.506;11.876;2024-02-14T07:17:57;3.10;;;2.30;;
14584;SDS011;7379;51.506;11.876;2024-02-14T07:20:24;2.87;;;2.43;;
14584;SDS011;7379;51.506;11.876;2024-02-14T07:22:52;5.00;;;2.37;;
14584;SDS011;7379;51.506;11.876;2024-02-14T07:25:20;4.10;;;2.73;;
14584;SDS011;7379;51.506;11.876;2024-02-14T07:27:47;3.67;;;2.40;;
14584;SDS011;7379;51.506;11.876;2024-02-14T07:30:14;2.70;;;2.50;;
14584;SDS011;7379;51.506;11.876;2024-02-14T07:32:43;3.57;;;2.40;;
14584;SDS011;7379;51.506;11.876;2024-02-14T07:35:10;4.57;;;2.47;;
14584;SDS011;7379;51.506;11.876;2024-02-14T07:37:38;3.67;;;2.50;;
14584;SDS011;7379;51.506;11.876;2024-02-14T07:40:05;3.17;;;2.40;;
14584;SDS011;7379;51.506;11.876;2024-02-14T07:42:32;2.87;;;2.30;;
14584;SDS011;7379;51.506;11.876;2024-02-14T07:44:59;3.00;;;2.40;;
14584;SDS011;7379;51.506;11.876;2024-02-14T07:47:28;3.47;;;2.63;;
14584;SDS011;7379;51.506;11.876;2024-02-14T07:49:56;2.83;;;2.30;;
14584;SDS011;7379;51.506;11.876;2024-02-14T07:52:23;3.07;;;2.60;;
14584;SDS011;7379;51.506;11.876;2024-02-14T07:54:51;4.33;;;2.60;;
14584;SDS011;7379;51.506;11.876;2024-02-14T07:57:18;3.33;;;2.50;;
14584;SDS011;7379;51.506;11.876;2024-02-14T07:59:45;3.50;;;2.30;;
14584;SDS011;7379;51.506;11.876;2024-02-14T08:02:12;3.40;;;2.40;;
14584;SDS011;7379;51.506;11.876;2024-02-14T08:04:38;4.17;;;2.53;;
14584;SDS011;7379;51.506;11.876;2024-02-14T08:07:07;4.00;;;2.50;;
14584;SDS011;7379;51.506;11.876;2024-02-14T08:09:34;2.87;;;2.47;;
14584;SDS011;7379;51.506;11.876;2024-02-14T08:12:01;3.80;;;2.53;;
14584;SDS011;7379;51.506;11.876;2024-02-14T08:14:28;3.97;;;2.47;;
14584;SDS011;7379;51.506;11.876;2024-02-14T08:16:55;2.80;;;2.50;;
14584;SDS011;7379;51.506;11.876;2024-02-14T08:19:22;3.63;;;2.43;;
14584;SDS011;7379;51.506;11.876;2024-02-14T08:21:48;5.37;;;2.70;;
14584;SDS011;7379;51.506;11.876;2024-02-14T08:24:16;3.73;;;2.50;;
14584;SDS011;7379;51.506;11.876;2024-02-14T08:26:43;3.50;;;2.60;;
14584;SDS011;7379;51.506;11.876;2024-02-14T08:29:10;2.93;;;2.23;;
14584;SDS011;7379;51.506;11.876;2024-02-14T08:31:38;2.60;;;2.40;;
14584;SDS011;7379;51.506;11.876;2024-02-14T08:34:05;2.93;;;2.30;;
14584;SDS011;7379;51.506;11.876;2024-02-14T08:36:33;4.03;;;2.33;;
14584;SDS011;7379;51.506;11.876;2024-02-14T08:39:05;4.87;;;2.50;;
14584;SDS011;7379;51.506;11.876;2024-02-14T08:41:34;3.37;;;2.63;;
14584;SDS011;7379;51.506;11.876;2024-02-14T08:44:00;3.00;;;2.50;;
14584;SDS011;7379;51.506;11.876;2024-02-14T08:46:27;3.30;;;2.40;;
14584;SDS011;7379;51.506;11.876;2024-02-14T08:48:54;2.60;;;2.37;;
14584;SDS011;7379;51.506;11.876;2024-02-14T08:51:21;3.53;;;2.53;;
14584;SDS011;7379;51.506;11.876;2024-02-14T08:53:48;2.63;;;2.43;;
14584;SDS011;7379;51.506;11.876;2024-02-14T08:56:19;2.90;;;2.50;;
14584;SDS011;7379;51.506;11.876;2024-02-14T08:58:48;2.87;;;2.50;;
14584;SDS011;7379;51.506;11.876;2024-02-14T09:01:15;3.27;;;2.87;;
14584;SDS011;7379;51.506;11.876;2024-02-14T09:03:41;5.23;;;3.07;;
14584;SDS011;7379;51.506;11.876;2024-02-14T09:06:12;3.43;;;2.70;;
14584;SDS011;7379;51.506;11.876;2024-02-14T09:08:39;3.50;;;2.70;;
14584;SDS011;7379;51.506;11.876;2024-02-14T09:11:06;3.47;;;2.60;;
14584;SDS011;7379;51.506;11.876;2024-02-14T09:13:33;3.67;;;2.67;;
14584;SDS011;7379;51.506;11.876;2024-02-14T09:16:01;3.60;;;2.60;;
14584;SDS011;7379;51.506;11.876;2024-02-14T09:18:27;4.13;;;2.77;;
14584;SDS011;7379;51.506;11.876;2024-02-14T09:20:56;3.27;;;2.60;;
14584;SDS011;7379;51.506;11.876;2024-02-14T09:23:23;3.87;;;2.60;;
14584;SDS011;7379;51.506;11.876;2024-02-14T09:25:50;5.70;;;2.77;;
14584;SDS011;7379;51.506;11.876;2024-02-14T09:28:17;4.10;;;2.73;;
14584;SDS011;7379;51.506;11.876;2024-02-14T09:30:44;3.63;;;2.53;;
14584;SDS011;7379;51.506;11.876;2024-02-14T09:33:12;3.90;;;2.53;;
14584;SDS011;7379;51.506;11.876;2024-02-14T09:35:39;4.37;;;2.80;;
14584;SDS011;7379;51.506;11.876;2024-02-14T09:38:09;3.88;;;2.50;;
14584;SDS011;7379;51.506;11.876;2024-02-14T09:40:37;3.70;;;2.90;;
14584;SDS011;7379;51.506;11.876;2024-02-14T09:43:05;3.93;;;2.80;;
14584;SDS011;7379;51.506;11.876;2024-02-14T09:45:40;4.22;;;2.70;;
14584;SDS011;7379;51.506;11.876;2024-02-14T09:48:09;5.00;;;2.90;;
14584;SDS011;7379;51.506;11.876;2024-02-14T09:50:40;3.73;;;2.77;;
14584;SDS011;7379;51.506;11.876;2024-02-14T09:53:07;4.00;;;2.80;;
14584;SDS011;7379;51.506;11.876;2024-02-14T09:55:34;3.77;;;2.73;;
14584;SDS011;7379;51.506;11.876;2024-02-14T09:58:03;5.03;;;2.70;;
14584;SDS011;7379;51.506;11.876;2024-02-14T10:00:32;4.77;;;2.80;;
14584;SDS011;7379;51.506;11.876;2024-02-14T10:02:59;4.70;;;2.83;;
14584;SDS011;7379;51.506;11.876;2024-02-14T10:05:25;5.33;;;2.80;;
14584;SDS011;7379;51.506;11.876;2024-02-14T10:07:54;7.33;;;3.20;;
14584;SDS011;7379;51.506;11.876;2024-02-14T10:10:23;4.40;;;2.72;;
14584;SDS011;7379;51.506;11.876;2024-02-14T10:12:50;4.40;;;2.90;;
14584;SDS011;7379;51.506;11.876;2024-02-14T10:15:16;5.77;;;2.80;;
14584;SDS011;7379;51.506;11.876;2024-02-14T10:17:43;4.00;;;2.97;;
14584;SDS011;7379;51.506;11.876;2024-02-14T10:20:10;3.87;;;3.00;;
14584;SDS011;7379;51.506;11.876;2024-02-14T10:22:38;3.80;;;3.13;;
14584;SDS011;7379;51.506;11.876;2024-02-14T10:25:06;3.60;;;2.67;;
14584;SDS011;7379;51.506;11.876;2024-02-14T10:27:35;4.73;;;2.93;;
14584;SDS011;7379;51.506;11.876;2024-02-14T10:30:04;4.67;;;2.80;;
14584;SDS011;7379;51.506;11.876;2024-02-14T10:32:34;3.63;;;2.60;;
14584;SDS011;7379;51.506;11.876;2024-02-14T10:35:01;3.43;;;2.83;;
14584;SDS011;7379;51.506;11.876;2024-02-14T10:37:30;4.17;;;2.87;;
14584;SDS011;7379;51.506;11.876;2024-02-14T10:39:57;4.90;;;3.03;;
14584;SDS011;7379;51.506;11.876;2024-02-14T10:42:29;3.40;;;2.90;;
14584;SDS011;7379;51.506;11.876;2024-02-14T10:44:56;3.90;;;3.13;;
14584;SDS011;7379;51.506;11.876;2024-02-14T10:47:24;3.30;;;2.97;;
14584;SDS011;7379;51.506;11.876;2024-02-14T10:49:56;4.07;;;2.90;;
14584;SDS011;7379;51.506;11.876;2024-02-14T10:52:27;4.40;;;2.87;;
14584;SDS011;7379;51.506;11.876;2024-02-14T10:54:57;3.13;;;2.80;;
14584;SDS011;7379;51.506;11.876;2024-02-14T10:57:25;6.27;;;2.90;;
14584;SDS011;7379;51.506;11.876;2024-02-14T10:59:55;3.97;;;2.90;;
14584;SDS011;7379;51.506;11.876;2024-02-14T11:02:23;3.93;;;2.87;;
14584;SDS011;7379;51.506;11.876;2024-02-14T11:04:52;3.33;;;2.92;;
14584;SDS011;7379;51.506;11.876;2024-02-14T11:07:19;4.37;;;2.90;;
14584;SDS011;7379;51.506;11.876;2024-02-14T11:09:47;3.20;;;2.80;;
14584;SDS011;7379;51.506;11.876;2024-02-14T11:12:15;3.30;;;2.80;;
14584;SDS011;7379;51.506;11.876;2024-02-14T11:14:42;4.67;;;3.10;;
14584;SDS011;7379;51.506;11.876;2024-02-14T11:17:11;4.07;;;3.10;;
14584;SDS011;7379;51.506;11.876;2024-02-14T11:19:38;3.40;;;2.80;;
14584;SDS011;7379;51.506;11.876;2024-02-14T11:22:11;3.77;;;2.80;;
14584;SDS011;7379;51.506;11.876;2024-02-14T11:24:39;4.25;;;2.90;;
14584;SDS011;7379;51.506;11.876;2024-02-14T11:27:09;3.20;;;2.67;;
14584;SDS011;7379;51.506;11.876;2024-02-14T11:29:38;3.45;;;2.90;;
14584;SDS011;7379;51.506;11.876;2024-02-14T11:32:05;5.10;;;2.77;;
14584;SDS011;7379;51.506;11.876;2024-02-14T11:34:35;3.03;;;2.60;;
14584;SDS011;7379;51.506;11.876;2024-02-14T11:37:02;5.03;;;2.60;;
14584;SDS011;7379;51.506;11.876;2024-02-14T11:39:29;4.15;;;2.88;;
14584;SDS011;7379;51.506;11.876;2024-02-14T11:41:58;3.20;;;2.80;;
14584;SDS011;7379;51.506;11.876;2024-02-14T11:44:25;4.05;;;2.67;;
14584;SDS011;7379;51.506;11.876;2024-02-14T11:46:51;5.17;;;2.63;;
14584;SDS011;7379;51.506;11.876;2024-02-14T11:49:18;4.30;;;2.67;;
14584;SDS011;7379;51.506;11.876;2024-02-14T11:51:47;2.70;;;2.50;;
14584;SDS011;7379;51.506;11.876;2024-02-14T11:54:13;4.13;;;2.73;;
14584;SDS011;7379;51.506;11.876;2024-02-14T11:56:40;2.73;;;2.50;;
14584;SDS011;7379;51.506;11.876;2024-02-14T11:59:07;3.95;;;2.65;;
14584;SDS011;7379;51.506;11.876;2024-02-14T12:01:36;3.65;;;2.85;;
14584;SDS011;7379;51.506;11.876;2024-02-14T12:04:04;3.03;;;2.55;;
14584;SDS011;7379;51.506;11.876;2024-02-14T12:06:33;3.40;;;2.53;;
14584;SDS011;7379;51.506;11.876;2024-02-14T12:09:02;4.10;;;2.60;;
14584;SDS011;7379;51.506;11.876;2024-02-14T12:11:30;3.88;;;2.70;;
14584;SDS011;7379;51.506;11.876;2024-02-14T12:14:00;3.95;;;2.67;;
14584;SDS011;7379;51.506;11.876;2024-02-14T12:16:27;3.20;;;2.50;;
14584;SDS011;7379;51.506;11.876;2024-02-14T12:19:03;3.83;;;2.70;;
14584;SDS011;7379;51.506;11.876;2024-02-14T12:21:32;3.38;;;2.60;;
14584;SDS011;7379;51.506;11.876;2024-02-14T12:24:00;3.58;;;2.50;;
14584;SDS011;7379;51.506;11.876;2024-02-14T12:26:29;3.75;;;2.67;;
14584;SDS011;7379;51.506;11.876;2024-02-14T12:28:56;3.78;;;2.50;;
14584;SDS011;7379;51.506;11.876;2024-02-14T12:31:23;3.67;;;2.80;;
14584;SDS011;7379;51.506;11.876;2024-02-14T12:33:51;3.83;;;2.67;;
14584;SDS011;7379;51.506;11.876;2024-02-14T12:36:20;5.97;;;2.65;;
14584;SDS011;7379;51.506;11.876;2024-02-14T12:38:47;4.70;;;2.70;;
14584;SDS011;7379;51.506;11.876;2024-02-14T12:41:14;3.95;;;2.35;;
14584;SDS011;7379;51.506;11.876;2024-02-14T12:43:42;3.05;;;2.40;;
14584;SDS011;7379;51.506;11.876;2024-02-14T12:46:09;3.88;;;2.70;;
14584;SDS011;7379;51.506;11.876;2024-02-14T12:48:36;3.53;;;2.75;;
14584;SDS011;7379;51.506;11.876;2024-02-14T12:51:02;3.63;;;2.45;;
14584;SDS011;7379;51.506;11.876;2024-02-14T12:53:29;4.97;;;2.65;;
14584;SDS011;7379;51.506;11.876;2024-02-14T12:55:57;4.05;;;2.50;;
14584;SDS011;7379;51.506;11.876;2024-02-14T12:58:23;4.13;;;2.75;;
14584;SDS011;7379;51.506;11.876;2024-02-14T13:00:52;4.10;;;2.50;;
14584;SDS011;7379;51.506;11.876;2024-02-14T13:03:18;3.08;;;2.30;;
14584;SDS011;7379;51.506;11.876;2024-02-14T13:05:45;4.95;;;2.60;;
14584;SDS011;7379;51.506;11.876;2024-02-14T13:08:12;3.58;;;2.90;;
14584;SDS011;7379;51.506;11.876;2024-02-14T13:10:40;3.47;;;2.40;;
14584;SDS011;7379;51.506;11.876;2024-02-14T13:13:07;3.55;;;2.33;;
14584;SDS011;7379;51.506;11.876;2024-02-14T13:15:34;3.17;;;2.40;;
14584;SDS011;7379;51.506;11.876;2024-02-14T13:18:03;2.55;;;2.35;;
14584;SDS011;7379;51.506;11.876;2024-02-14T13:20:30;4.95;;;2.50;;
14584;SDS011;7379;51.506;11.876;2024-02-14T13:22:57;4.43;;;2.85;;
14584;SDS011;7379;51.506;11.876;2024-02-14T13:25:23;4.30;;;2.90;;
14584;SDS011;7379;51.506;11.876;2024-02-14T13:27:51;4.22;;;2.83;;
14584;SDS011;7379;51.506;11.876;2024-02-14T13:30:19;3.33;;;2.67;;
14584;SDS011;7379;51.506;11.876;2024-02-14T13:32:46;3.88;;;2.95;;
14584;SDS011;7379;51.506;11.876;2024-02-14T13:35:14;3.30;;;2.72;;
14584;SDS011;7379;51.506;11.876;2024-02-14T13:37:42;4.13;;;2.70;;
14584;SDS011;7379;51.506;11.876;2024-02-14T13:40:10;3.38;;;3.00;;
14584;SDS011;7379;51.506;11.876;2024-02-14T13:42:37;3.13;;;2.60;;
14584;SDS011;7379;51.506;11.876;2024-02-14T13:45:04;4.20;;;2.60;;
14584;SDS011;7379;51.506;11.876;2024-02-14T13:47:34;4.55;;;2.90;;
14584;SDS011;7379;51.506;11.876;2024-02-14T13:50:04;4.45;;;2.90;;
14584;SDS011;7379;51.506;11.876;2024-02-14T13:52:33;3.08;;;2.60;;
14584;SDS011;7379;51.506;11.876;2024-02-14T13:55:00;3.13;;;2.50;;
14584;SDS011;7379;51.506;11.876;2024-02-14T13:57:27;3.40;;;2.45;;
14584;SDS011;7379;51.506;11.876;2024-02-14T13:59:54;3.38;;;2.80;;
14584;SDS011;7379;51.506;11.876;2024-02-14T14:02:21;4.10;;;2.70;;
14584;SDS011;7379;51.506;11.876;2024-02-14T14:04:49;3.08;;;2.70;;
14584;SDS011;7379;51.506;11.876;2024-02-14T14:07:17;3.50;;;2.72;;
14584;SDS011;7379;51.506;11.876;2024-02-14T14:09:45;3.38;;;2.60;;
14584;SDS011;7379;51.506;11.876;2024-02-14T14:12:12;3.22;;;2.80;;
14584;SDS011;7379;51.506;11.876;2024-02-14T14:14:39;3.65;;;2.90;;
14584;SDS011;7379;51.506;11.876;2024-02-14T14:17:06;4.78;;;2.80;;
14584;SDS011;7379;51.506;11.876;2024-02-14T14:19:32;3.92;;;2.88;;
14584;SDS011;7379;51.506;11.876;2024-02-14T14:21:59;4.53;;;2.80;;
14584;SDS011;7379;51.506;11.876;2024-02-14T14:24:26;3.10;;;2.80;;
14584;SDS011;7379;51.506;11.876;2024-02-14T14:26:57;3.25;;;2.70;;
14584;SDS011;7379;51.506;11.876;2024-02-14T14:29:24;3.03;;;2.50;;
14584;SDS011;7379;51.506;11.876;2024-02-14T14:31:51;3.10;;;2.65;;
14584;SDS011;7379;51.506;11.876;2024-02-14T14:34:17;3.58;;;2.67;;
14584;SDS011;7379;51.506;11.876;2024-02-14T14:36:44;4.15;;;2.80;;
14584;SDS011;7379;51.506;11.876;2024-02-14T14:39:11;4.13;;;2.72;;
14584;SDS011;7379;51.506;11.876;2024-02-14T14:41:38;5.55;;;2.85;;
14584;SDS011;7379;51.506;11.876;2024-02-14T14:44:08;3.35;;;2.80;;
14584;SDS011;7379;51.506;11.876;2024-02-14T14:46:35;3.22;;;2.92;;
14584;SDS011;7379;51.506;11.876;2024-02-14T14:49:06;4.05;;;2.88;;